sensor_id;sensor_type;location;lat;lon;timestamp;temperature;humidity
21425;DHT22;10873;51.132;16.848;2022-09-24T00:01:09;25.10;50.60
21425;DHT22;10873;51.132;16.848;2022-09-24T00:03:36;25.10;50.50
21425;DHT22;10873;51.132;16.848;2022-09-24T00:06:04;25.10;50.50
21425;DHT22;10873;51.132;16.848;2022-09-24T00:08:31;25.10;50.50
21425;DHT22;10873;51.132;16.848;2022-09-24T00:11:01;25.10;50.50
21425;DHT22;10873;51.132;16.848;2022-09-24T00:13:28;25.10;50.50
21425;DHT22;10873;51.132;16.848;2022-09-24T00:15:54;25.10;50.50
21425;DHT22;10873;51.132;16.848;2022-09-24T00:18:20;25.10;50.50
21425;DHT22;10873;51.132;16.848;2022-09-24T00:20:47;25.10;50.50
21425;DHT22;10873;51.132;16.848;2022-09-24T00:23:14;25.00;50.40
21425;DHT22;10873;51.132;16.848;2022-09-24T00:25:40;25.00;50.40
21425;DHT22;10873;51.132;16.848;2022-09-24T00:28:25;25.00;51.00
21425;DHT22;10873;51.132;16.848;2022-09-24T00:30:51;25.00;50.30
21425;DHT22;10873;51.132;16.848;2022-09-24T00:33:18;25.00;50.40
21425;DHT22;10873;51.132;16.848;2022-09-24T00:35:44;25.00;50.30
21425;DHT22;10873;51.132;16.848;2022-09-24T00:38:10;25.00;50.20
21425;DHT22;10873;51.132;16.848;2022-09-24T00:40:38;25.00;50.20
21425;DHT22;10873;51.132;16.848;2022-09-24T00:43:20;25.00;50.20
21425;DHT22;10873;51.132;16.848;2022-09-24T00:45:46;25.00;50.20
21425;DHT22;10873;51.132;16.848;2022-09-24T00:48:13;25.00;50.10
21425;DHT22;10873;51.132;16.848;2022-09-24T00:50:39;25.00;50.10
21425;DHT22;10873;51.132;16.848;2022-09-24T00:53:09;25.00;50.10
21425;DHT22;10873;51.132;16.848;2022-09-24T00:55:36;24.90;50.00
21425;DHT22;10873;51.132;16.848;2022-09-24T00:58:06;25.00;50.10
21425;DHT22;10873;51.132;16.848;2022-09-24T01:00:36;25.00;50.20
21425;DHT22;10873;51.132;16.848;2022-09-24T01:03:05;24.90;50.10
21425;DHT22;10873;51.132;16.848;2022-09-24T01:05:32;24.90;50.20
21425;DHT22;10873;51.132;16.848;2022-09-24T01:07:59;24.90;50.20
21425;DHT22;10873;51.132;16.848;2022-09-24T01:10:43;24.90;50.30
21425;DHT22;10873;51.132;16.848;2022-09-24T01:13:32;24.90;50.30
21425;DHT22;10873;51.132;16.848;2022-09-24T01:16:09;24.90;50.30
21425;DHT22;10873;51.132;16.848;2022-09-24T01:18:41;24.90;50.30
21425;DHT22;10873;51.132;16.848;2022-09-24T01:21:22;24.80;50.20
21425;DHT22;10873;51.132;16.848;2022-09-24T01:24:14;24.80;50.20
21425;DHT22;10873;51.132;16.848;2022-09-24T01:26:59;24.80;50.20
21425;DHT22;10873;51.132;16.848;2022-09-24T01:29:35;24.80;50.20
21425;DHT22;10873;51.132;16.848;2022-09-24T01:32:10;24.80;50.20
21425;DHT22;10873;51.132;16.848;2022-09-24T01:34:42;24.80;50.20
21425;DHT22;10873;51.132;16.848;2022-09-24T01:37:11;24.80;50.20
21425;DHT22;10873;51.132;16.848;2022-09-24T01:39:40;24.80;50.20
21425;DHT22;10873;51.132;16.848;2022-09-24T01:42:09;24.80;50.20
21425;DHT22;10873;51.132;16.848;2022-09-24T01:44:37;24.80;50.20
21425;DHT22;10873;51.132;16.848;2022-09-24T01:47:10;24.80;50.20
21425;DHT22;10873;51.132;16.848;2022-09-24T01:49:37;24.80;50.20
21425;DHT22;10873;51.132;16.848;2022-09-24T01:52:07;24.70;50.20
21425;DHT22;10873;51.132;16.848;2022-09-24T01:54:39;24.80;50.20
21425;DHT22;10873;51.132;16.848;2022-09-24T01:57:10;24.70;50.20
21425;DHT22;10873;51.132;16.848;2022-09-24T01:59:42;24.80;50.30
21425;DHT22;10873;51.132;16.848;2022-09-24T02:02:13;24.70;50.20
21425;DHT22;10873;51.132;16.848;2022-09-24T02:04:43;24.70;50.20
21425;DHT22;10873;51.132;16.848;2022-09-24T02:07:12;24.70;50.20
21425;DHT22;10873;51.132;16.848;2022-09-24T02:09:42;24.70;50.20
21425;DHT22;10873;51.132;16.848;2022-09-24T02:12:11;24.70;50.20
21425;DHT22;10873;51.132;16.848;2022-09-24T02:14:44;24.70;50.20
21425;DHT22;10873;51.132;16.848;2022-09-24T02:17:13;24.70;50.20
21425;DHT22;10873;51.132;16.848;2022-09-24T02:19:41;24.70;50.20
21425;DHT22;10873;51.132;16.848;2022-09-24T02:22:09;24.70;50.20
21425;DHT22;10873;51.132;16.848;2022-09-24T02:24:42;24.70;50.20
21425;DHT22;10873;51.132;16.848;2022-09-24T02:27:08;24.60;50.30
21425;DHT22;10873;51.132;16.848;2022-09-24T02:29:35;24.60;50.30
21425;DHT22;10873;51.132;16.848;2022-09-24T02:32:05;24.60;50.40
21425;DHT22;10873;51.132;16.848;2022-09-24T02:34:36;24.70;50.40
21425;DHT22;10873;51.132;16.848;2022-09-24T02:37:05;24.70;50.40
21425;DHT22;10873;51.132;16.848;2022-09-24T02:39:32;24.70;50.40
21425;DHT22;10873;51.132;16.848;2022-09-24T02:41:58;24.80;50.40
21425;DHT22;10873;51.132;16.848;2022-09-24T02:44:26;24.80;50.40
21425;DHT22;10873;51.132;16.848;2022-09-24T02:46:52;24.80;50.30
21425;DHT22;10873;51.132;16.848;2022-09-24T02:49:19;24.80;50.30
21425;DHT22;10873;51.132;16.848;2022-09-24T02:51:45;24.80;50.30
21425;DHT22;10873;51.132;16.848;2022-09-24T02:54:11;24.80;50.30
21425;DHT22;10873;51.132;16.848;2022-09-24T02:56:38;24.80;50.30
21425;DHT22;10873;51.132;16.848;2022-09-24T02:59:05;24.80;50.30
21425;DHT22;10873;51.132;16.848;2022-09-24T03:01:33;24.80;50.30
21425;DHT22;10873;51.132;16.848;2022-09-24T03:04:00;24.90;50.30
21425;DHT22;10873;51.132;16.848;2022-09-24T03:06:28;24.80;50.30
21425;DHT22;10873;51.132;16.848;2022-09-24T03:08:55;24.80;50.40
21425;DHT22;10873;51.132;16.848;2022-09-24T03:11:22;24.80;50.40
21425;DHT22;10873;51.132;16.848;2022-09-24T03:13:50;24.80;50.40
21425;DHT22;10873;51.132;16.848;2022-09-24T03:16:16;24.80;50.40
21425;DHT22;10873;51.132;16.848;2022-09-24T03:18:43;24.80;50.40
21425;DHT22;10873;51.132;16.848;2022-09-24T03:21:11;24.80;50.40
21425;DHT22;10873;51.132;16.848;2022-09-24T03:23:39;24.80;50.50
21425;DHT22;10873;51.132;16.848;2022-09-24T03:26:06;24.80;50.40
21425;DHT22;10873;51.132;16.848;2022-09-24T03:28:32;24.80;50.40
21425;DHT22;10873;51.132;16.848;2022-09-24T03:30:58;24.80;50.50
21425;DHT22;10873;51.132;16.848;2022-09-24T03:33:25;24.80;50.50
21425;DHT22;10873;51.132;16.848;2022-09-24T03:35:55;24.80;50.50
21425;DHT22;10873;51.132;16.848;2022-09-24T03:38:21;24.80;50.50
21425;DHT22;10873;51.132;16.848;2022-09-24T03:40:49;24.80;50.50
21425;DHT22;10873;51.132;16.848;2022-09-24T03:43:15;24.80;50.60
21425;DHT22;10873;51.132;16.848;2022-09-24T03:45:41;24.80;50.60
21425;DHT22;10873;51.132;16.848;2022-09-24T03:48:07;24.80;50.70
21425;DHT22;10873;51.132;16.848;2022-09-24T03:50:35;24.70;50.60
21425;DHT22;10873;51.132;16.848;2022-09-24T03:53:01;24.70;50.70
21425;DHT22;10873;51.132;16.848;2022-09-24T03:55:27;24.70;50.70
21425;DHT22;10873;51.132;16.848;2022-09-24T03:57:54;24.70;50.80
21425;DHT22;10873;51.132;16.848;2022-09-24T04:00:21;24.70;50.80
21425;DHT22;10873;51.132;16.848;2022-09-24T04:02:48;24.70;50.90
21425;DHT22;10873;51.132;16.848;2022-09-24T04:05:15;24.70;50.90
21425;DHT22;10873;51.132;16.848;2022-09-24T04:07:42;24.70;50.90
21425;DHT22;10873;51.132;16.848;2022-09-24T04:10:08;24.70;51.00
21425;DHT22;10873;51.132;16.848;2022-09-24T04:12:34;24.70;51.00
21425;DHT22;10873;51.132;16.848;2022-09-24T04:15:03;24.70;51.00
21425;DHT22;10873;51.132;16.848;2022-09-24T04:17:29;24.70;51.00
21425;DHT22;10873;51.132;16.848;2022-09-24T04:19:58;24.70;51.00
21425;DHT22;10873;51.132;16.848;2022-09-24T04:22:25;24.70;51.10
21425;DHT22;10873;51.132;16.848;2022-09-24T04:24:51;24.70;51.00
21425;DHT22;10873;51.132;16.848;2022-09-24T04:27:17;24.60;51.10
21425;DHT22;10873;51.132;16.848;2022-09-24T04:29:43;24.60;51.10
21425;DHT22;10873;51.132;16.848;2022-09-24T04:32:11;24.60;51.10
21425;DHT22;10873;51.132;16.848;2022-09-24T04:34:37;24.70;51.20
21425;DHT22;10873;51.132;16.848;2022-09-24T04:37:03;24.60;51.20
21425;DHT22;10873;51.132;16.848;2022-09-24T04:39:30;24.60;51.20
21425;DHT22;10873;51.132;16.848;2022-09-24T04:41:57;24.60;51.30
21425;DHT22;10873;51.132;16.848;2022-09-24T04:44:23;24.60;51.30
21425;DHT22;10873;51.132;16.848;2022-09-24T04:46:49;24.60;51.30
21425;DHT22;10873;51.132;16.848;2022-09-24T04:49:17;24.60;51.40
21425;DHT22;10873;51.132;16.848;2022-09-24T04:51:43;24.60;51.40
21425;DHT22;10873;51.132;16.848;2022-09-24T04:54:09;24.60;51.40
21425;DHT22;10873;51.132;16.848;2022-09-24T04:56:35;24.60;51.50
21425;DHT22;10873;51.132;16.848;2022-09-24T04:59:01;24.60;51.70
21425;DHT22;10873;51.132;16.848;2022-09-24T05:01:28;24.50;51.60
21425;DHT22;10873;51.132;16.848;2022-09-24T05:03:54;24.50;51.50
21425;DHT22;10873;51.132;16.848;2022-09-24T05:06:22;24.50;52.00
21425;DHT22;10873;51.132;16.848;2022-09-24T05:08:48;24.50;51.90
21425;DHT22;10873;51.132;16.848;2022-09-24T05:11:14;24.50;51.80
21425;DHT22;10873;51.132;16.848;2022-09-24T05:13:40;24.50;51.70
21425;DHT22;10873;51.132;16.848;2022-09-24T05:16:07;24.50;51.60
21425;DHT22;10873;51.132;16.848;2022-09-24T05:18:34;24.50;51.50
21425;DHT22;10873;51.132;16.848;2022-09-24T05:21:01;24.40;51.90
21425;DHT22;10873;51.132;16.848;2022-09-24T05:23:28;24.40;52.40
21425;DHT22;10873;51.132;16.848;2022-09-24T05:25:55;24.40;52.90
21425;DHT22;10873;51.132;16.848;2022-09-24T05:28:39;24.40;53.20
21425;DHT22;10873;51.132;16.848;2022-09-24T05:31:07;24.30;53.50
21425;DHT22;10873;51.132;16.848;2022-09-24T05:33:35;24.30;53.90
21425;DHT22;10873;51.132;16.848;2022-09-24T05:36:02;24.30;54.20
21425;DHT22;10873;51.132;16.848;2022-09-24T05:38:31;24.30;54.50
21425;DHT22;10873;51.132;16.848;2022-09-24T05:40:57;24.30;54.70
21425;DHT22;10873;51.132;16.848;2022-09-24T05:43:23;24.30;54.80
21425;DHT22;10873;51.132;16.848;2022-09-24T05:45:53;24.30;54.90
21425;DHT22;10873;51.132;16.848;2022-09-24T05:48:21;24.30;54.90
21425;DHT22;10873;51.132;16.848;2022-09-24T05:50:47;24.40;55.60
21425;DHT22;10873;51.132;16.848;2022-09-24T05:53:14;24.40;55.70
21425;DHT22;10873;51.132;16.848;2022-09-24T05:55:43;24.30;55.70
21425;DHT22;10873;51.132;16.848;2022-09-24T05:58:09;24.40;55.70
21425;DHT22;10873;51.132;16.848;2022-09-24T06:00:36;24.40;55.70
21425;DHT22;10873;51.132;16.848;2022-09-24T06:03:03;24.40;55.50
21425;DHT22;10873;51.132;16.848;2022-09-24T06:05:30;24.30;55.10
21425;DHT22;10873;51.132;16.848;2022-09-24T06:07:56;24.30;54.80
21425;DHT22;10873;51.132;16.848;2022-09-24T06:10:22;24.30;54.80
21425;DHT22;10873;51.132;16.848;2022-09-24T06:12:52;24.30;54.80
21425;DHT22;10873;51.132;16.848;2022-09-24T06:15:19;24.30;54.90
21425;DHT22;10873;51.132;16.848;2022-09-24T06:17:45;24.30;55.00
21425;DHT22;10873;51.132;16.848;2022-09-24T06:20:12;24.30;55.20
21425;DHT22;10873;51.132;16.848;2022-09-24T06:22:38;24.30;55.40
21425;DHT22;10873;51.132;16.848;2022-09-24T06:25:06;24.30;55.60
21425;DHT22;10873;51.132;16.848;2022-09-24T06:27:32;24.20;56.40
21425;DHT22;10873;51.132;16.848;2022-09-24T06:30:00;24.30;55.90
21425;DHT22;10873;51.132;16.848;2022-09-24T06:32:26;24.20;56.10
21425;DHT22;10873;51.132;16.848;2022-09-24T06:34:52;24.20;56.10
21425;DHT22;10873;51.132;16.848;2022-09-24T06:37:18;24.20;57.20
21425;DHT22;10873;51.132;16.848;2022-09-24T06:39:44;24.20;57.30
21425;DHT22;10873;51.132;16.848;2022-09-24T06:42:11;24.20;57.30
21425;DHT22;10873;51.132;16.848;2022-09-24T06:44:37;24.20;57.30
21425;DHT22;10873;51.132;16.848;2022-09-24T06:47:05;24.20;57.40
21425;DHT22;10873;51.132;16.848;2022-09-24T06:49:31;24.20;57.50
21425;DHT22;10873;51.132;16.848;2022-09-24T06:51:57;24.20;57.60
21425;DHT22;10873;51.132;16.848;2022-09-24T06:54:23;24.20;57.70
21425;DHT22;10873;51.132;16.848;2022-09-24T06:56:49;24.30;57.70
21425;DHT22;10873;51.132;16.848;2022-09-24T06:59:17;24.30;57.80
21425;DHT22;10873;51.132;16.848;2022-09-24T07:01:43;24.30;57.70
21425;DHT22;10873;51.132;16.848;2022-09-24T07:04:11;24.30;57.70
21425;DHT22;10873;51.132;16.848;2022-09-24T07:06:37;24.30;57.70
21425;DHT22;10873;51.132;16.848;2022-09-24T07:09:22;24.30;57.70
21425;DHT22;10873;51.132;16.848;2022-09-24T07:11:48;24.40;57.30
21425;DHT22;10873;51.132;16.848;2022-09-24T07:14:14;24.40;57.00
21425;DHT22;10873;51.132;16.848;2022-09-24T07:16:40;24.40;56.70
21425;DHT22;10873;51.132;16.848;2022-09-24T07:19:06;24.40;56.60
21425;DHT22;10873;51.132;16.848;2022-09-24T07:21:33;24.40;56.70
21425;DHT22;10873;51.132;16.848;2022-09-24T07:24:00;24.40;57.60
21425;DHT22;10873;51.132;16.848;2022-09-24T07:26:27;24.50;57.50
21425;DHT22;10873;51.132;16.848;2022-09-24T07:28:53;24.40;57.20
21425;DHT22;10873;51.132;16.848;2022-09-24T07:31:19;24.40;57.00
21425;DHT22;10873;51.132;16.848;2022-09-24T07:33:46;24.40;56.80
21425;DHT22;10873;51.132;16.848;2022-09-24T07:36:12;24.40;56.70
21425;DHT22;10873;51.132;16.848;2022-09-24T07:38:39;24.40;56.60
21425;DHT22;10873;51.132;16.848;2022-09-24T07:41:05;24.40;56.60
21425;DHT22;10873;51.132;16.848;2022-09-24T07:43:34;24.40;56.90
21425;DHT22;10873;51.132;16.848;2022-09-24T07:46:00;24.30;57.50
21425;DHT22;10873;51.132;16.848;2022-09-24T07:48:26;24.30;57.60
21425;DHT22;10873;51.132;16.848;2022-09-24T07:50:52;24.30;57.70
21425;DHT22;10873;51.132;16.848;2022-09-24T07:53:18;24.30;57.90
21425;DHT22;10873;51.132;16.848;2022-09-24T07:55:48;24.20;58.10
21425;DHT22;10873;51.132;16.848;2022-09-24T07:58:14;24.20;58.20
21425;DHT22;10873;51.132;16.848;2022-09-24T08:00:41;24.20;58.40
21425;DHT22;10873;51.132;16.848;2022-09-24T08:03:07;24.20;58.30
21425;DHT22;10873;51.132;16.848;2022-09-24T08:05:33;24.20;58.50
21425;DHT22;10873;51.132;16.848;2022-09-24T08:08:00;24.20;58.50
21425;DHT22;10873;51.132;16.848;2022-09-24T08:10:27;24.10;58.40
21425;DHT22;10873;51.132;16.848;2022-09-24T08:12:54;24.10;58.50
21425;DHT22;10873;51.132;16.848;2022-09-24T08:15:23;24.20;58.70
21425;DHT22;10873;51.132;16.848;2022-09-24T08:17:49;24.10;58.50
21425;DHT22;10873;51.132;16.848;2022-09-24T08:20:16;24.10;58.30
21425;DHT22;10873;51.132;16.848;2022-09-24T08:22:42;24.10;58.40
21425;DHT22;10873;51.132;16.848;2022-09-24T08:25:09;24.10;58.50
21425;DHT22;10873;51.132;16.848;2022-09-24T08:27:35;24.10;58.50
21425;DHT22;10873;51.132;16.848;2022-09-24T08:30:04;24.10;58.60
21425;DHT22;10873;51.132;16.848;2022-09-24T08:32:31;24.10;58.60
21425;DHT22;10873;51.132;16.848;2022-09-24T08:34:57;24.00;58.70
21425;DHT22;10873;51.132;16.848;2022-09-24T08:37:24;24.10;58.60
21425;DHT22;10873;51.132;16.848;2022-09-24T08:39:51;24.10;58.70
21425;DHT22;10873;51.132;16.848;2022-09-24T08:42:27;24.10;59.70
21425;DHT22;10873;51.132;16.848;2022-09-24T08:44:57;24.10;61.50
21425;DHT22;10873;51.132;16.848;2022-09-24T08:47:47;24.10;63.20
21425;DHT22;10873;51.132;16.848;2022-09-24T08:50:16;24.10;64.70
21425;DHT22;10873;51.132;16.848;2022-09-24T08:52:56;24.20;65.00
21425;DHT22;10873;51.132;16.848;2022-09-24T08:55:29;24.20;64.20
21425;DHT22;10873;51.132;16.848;2022-09-24T08:58:03;24.20;63.40
21425;DHT22;10873;51.132;16.848;2022-09-24T09:00:39;24.20;62.70
21425;DHT22;10873;51.132;16.848;2022-09-24T09:03:12;24.30;62.20
21425;DHT22;10873;51.132;16.848;2022-09-24T09:05:52;24.30;61.70
21425;DHT22;10873;51.132;16.848;2022-09-24T09:08:24;24.40;61.20
21425;DHT22;10873;51.132;16.848;2022-09-24T09:10:56;24.40;61.20
21425;DHT22;10873;51.132;16.848;2022-09-24T09:13:26;24.50;60.20
21425;DHT22;10873;51.132;16.848;2022-09-24T09:15:59;24.50;61.40
21425;DHT22;10873;51.132;16.848;2022-09-24T09:18:32;24.50;60.90
21425;DHT22;10873;51.132;16.848;2022-09-24T09:21:05;24.50;60.20
21425;DHT22;10873;51.132;16.848;2022-09-24T09:23:38;24.50;59.90
21425;DHT22;10873;51.132;16.848;2022-09-24T09:26:08;24.50;59.90
21425;DHT22;10873;51.132;16.848;2022-09-24T09:28:36;24.50;59.60
21425;DHT22;10873;51.132;16.848;2022-09-24T09:31:08;24.50;59.70
21425;DHT22;10873;51.132;16.848;2022-09-24T09:33:47;24.50;59.50
21425;DHT22;10873;51.132;16.848;2022-09-24T09:36:31;24.50;60.00
21425;DHT22;10873;51.132;16.848;2022-09-24T09:39:06;24.40;59.90
21425;DHT22;10873;51.132;16.848;2022-09-24T09:41:40;24.40;59.90
21425;DHT22;10873;51.132;16.848;2022-09-24T09:44:11;24.40;59.80
21425;DHT22;10873;51.132;16.848;2022-09-24T09:46:43;24.40;59.80
21425;DHT22;10873;51.132;16.848;2022-09-24T09:49:13;24.30;59.90
21425;DHT22;10873;51.132;16.848;2022-09-24T09:51:43;24.30;60.00
21425;DHT22;10873;51.132;16.848;2022-09-24T09:54:16;24.30;59.90
21425;DHT22;10873;51.132;16.848;2022-09-24T09:56:49;24.30;60.20
21425;DHT22;10873;51.132;16.848;2022-09-24T09:59:20;24.30;60.50
21425;DHT22;10873;51.132;16.848;2022-09-24T10:01:50;24.30;60.40
21425;DHT22;10873;51.132;16.848;2022-09-24T10:04:35;24.30;60.40
21425;DHT22;10873;51.132;16.848;2022-09-24T10:07:09;24.30;60.40
21425;DHT22;10873;51.132;16.848;2022-09-24T10:09:36;24.30;60.50
21425;DHT22;10873;51.132;16.848;2022-09-24T10:12:08;24.30;60.60
21425;DHT22;10873;51.132;16.848;2022-09-24T10:14:34;24.30;60.60
21425;DHT22;10873;51.132;16.848;2022-09-24T10:17:01;24.30;60.70
21425;DHT22;10873;51.132;16.848;2022-09-24T10:19:33;24.30;60.60
21425;DHT22;10873;51.132;16.848;2022-09-24T10:22:08;24.30;60.70
21425;DHT22;10873;51.132;16.848;2022-09-24T10:24:36;24.30;60.70
21425;DHT22;10873;51.132;16.848;2022-09-24T10:27:21;24.30;60.50
21425;DHT22;10873;51.132;16.848;2022-09-24T10:29:56;24.30;60.30
21425;DHT22;10873;51.132;16.848;2022-09-24T10:32:41;24.30;59.90
21425;DHT22;10873;51.132;16.848;2022-09-24T10:35:24;24.30;59.80
21425;DHT22;10873;51.132;16.848;2022-09-24T10:37:52;24.30;60.00
21425;DHT22;10873;51.132;16.848;2022-09-24T10:40:21;24.30;59.70
21425;DHT22;10873;51.132;16.848;2022-09-24T10:42:55;24.30;59.70
21425;DHT22;10873;51.132;16.848;2022-09-24T10:45:28;24.30;59.90
21425;DHT22;10873;51.132;16.848;2022-09-24T10:48:00;24.40;60.30
21425;DHT22;10873;51.132;16.848;2022-09-24T10:50:37;24.40;60.40
21425;DHT22;10873;51.132;16.848;2022-09-24T10:53:13;24.40;60.40
21425;DHT22;10873;51.132;16.848;2022-09-24T10:55:44;24.50;60.20
21425;DHT22;10873;51.132;16.848;2022-09-24T10:58:25;24.50;60.10
21425;DHT22;10873;51.132;16.848;2022-09-24T11:01:06;24.50;60.00
21425;DHT22;10873;51.132;16.848;2022-09-24T11:03:53;24.50;59.80
21425;DHT22;10873;51.132;16.848;2022-09-24T11:06:42;24.50;59.50
21425;DHT22;10873;51.132;16.848;2022-09-24T11:09:19;24.50;59.40
21425;DHT22;10873;51.132;16.848;2022-09-24T11:11:55;24.50;59.20
21425;DHT22;10873;51.132;16.848;2022-09-24T11:14:34;24.50;59.30
21425;DHT22;10873;51.132;16.848;2022-09-24T11:17:25;24.60;60.40
21425;DHT22;10873;51.132;16.848;2022-09-24T11:20:13;24.50;60.90
21425;DHT22;10873;51.132;16.848;2022-09-24T11:23:03;24.50;60.90
21425;DHT22;10873;51.132;16.848;2022-09-24T11:25:38;24.60;61.00
21425;DHT22;10873;51.132;16.848;2022-09-24T11:28:26;24.60;60.90
21425;DHT22;10873;51.132;16.848;2022-09-24T11:31:06;24.60;60.70
21425;DHT22;10873;51.132;16.848;2022-09-24T11:33:48;24.50;60.60
21425;DHT22;10873;51.132;16.848;2022-09-24T11:36:33;24.60;60.80
21425;DHT22;10873;51.132;16.848;2022-09-24T11:39:14;24.60;60.20
21425;DHT22;10873;51.132;16.848;2022-09-24T11:41:47;24.60;59.80
21425;DHT22;10873;51.132;16.848;2022-09-24T11:44:34;24.50;59.90
21425;DHT22;10873;51.132;16.848;2022-09-24T11:47:15;24.60;59.80
21425;DHT22;10873;51.132;16.848;2022-09-24T11:50:10;24.60;60.10
21425;DHT22;10873;51.132;16.848;2022-09-24T11:52:41;24.60;59.50
21425;DHT22;10873;51.132;16.848;2022-09-24T11:55:14;24.60;58.80
21425;DHT22;10873;51.132;16.848;2022-09-24T11:57:45;24.60;58.10
21425;DHT22;10873;51.132;16.848;2022-09-24T12:00:15;24.60;57.80
21425;DHT22;10873;51.132;16.848;2022-09-24T12:02:46;24.60;57.50
21425;DHT22;10873;51.132;16.848;2022-09-24T12:05:19;24.60;57.50
21425;DHT22;10873;51.132;16.848;2022-09-24T12:07:50;24.60;57.30
21425;DHT22;10873;51.132;16.848;2022-09-24T12:10:24;24.60;57.10
21425;DHT22;10873;51.132;16.848;2022-09-24T12:13:00;24.60;56.80
21425;DHT22;10873;51.132;16.848;2022-09-24T12:15:32;24.70;56.40
21425;DHT22;10873;51.132;16.848;2022-09-24T12:18:07;24.70;56.10
21425;DHT22;10873;51.132;16.848;2022-09-24T12:20:43;24.70;56.00
21425;DHT22;10873;51.132;16.848;2022-09-24T12:23:13;24.70;55.90
21425;DHT22;10873;51.132;16.848;2022-09-24T12:25:45;24.70;55.80
21425;DHT22;10873;51.132;16.848;2022-09-24T12:28:14;24.70;55.80
21425;DHT22;10873;51.132;16.848;2022-09-24T12:31:05;24.70;55.70
21425;DHT22;10873;51.132;16.848;2022-09-24T12:33:57;24.80;55.80
21425;DHT22;10873;51.132;16.848;2022-09-24T12:36:36;24.80;55.50
21425;DHT22;10873;51.132;16.848;2022-09-24T12:39:07;24.80;55.40
21425;DHT22;10873;51.132;16.848;2022-09-24T12:41:37;24.80;55.20
21425;DHT22;10873;51.132;16.848;2022-09-24T12:44:10;24.90;55.40
21425;DHT22;10873;51.132;16.848;2022-09-24T12:46:41;24.90;55.50
21425;DHT22;10873;51.132;16.848;2022-09-24T12:49:21;25.00;55.40
21425;DHT22;10873;51.132;16.848;2022-09-24T12:51:51;25.00;55.00
21425;DHT22;10873;51.132;16.848;2022-09-24T12:54:22;25.00;54.90
21425;DHT22;10873;51.132;16.848;2022-09-24T12:57:04;25.00;56.00
21425;DHT22;10873;51.132;16.848;2022-09-24T12:59:30;25.00;56.20
21425;DHT22;10873;51.132;16.848;2022-09-24T13:02:06;25.00;56.30
21425;DHT22;10873;51.132;16.848;2022-09-24T13:04:43;25.00;56.10
21425;DHT22;10873;51.132;16.848;2022-09-24T13:07:28;25.00;56.00
21425;DHT22;10873;51.132;16.848;2022-09-24T13:09:54;25.00;55.90
21425;DHT22;10873;51.132;16.848;2022-09-24T13:12:30;25.00;55.90
21425;DHT22;10873;51.132;16.848;2022-09-24T13:14:59;25.00;55.90
21425;DHT22;10873;51.132;16.848;2022-09-24T13:17:28;25.10;55.60
21425;DHT22;10873;51.132;16.848;2022-09-24T13:19:56;25.10;55.00
21425;DHT22;10873;51.132;16.848;2022-09-24T13:22:26;25.20;54.90
21425;DHT22;10873;51.132;16.848;2022-09-24T13:25:19;25.20;55.00
21425;DHT22;10873;51.132;16.848;2022-09-24T13:28:00;25.20;55.00
21425;DHT22;10873;51.132;16.848;2022-09-24T13:30:36;25.20;54.90
21425;DHT22;10873;51.132;16.848;2022-09-24T13:33:12;25.20;55.00
21425;DHT22;10873;51.132;16.848;2022-09-24T13:35:43;25.20;54.90
21425;DHT22;10873;51.132;16.848;2022-09-24T13:38:15;25.20;54.80
21425;DHT22;10873;51.132;16.848;2022-09-24T13:40:49;25.20;54.70
21425;DHT22;10873;51.132;16.848;2022-09-24T13:43:32;25.20;54.50
21425;DHT22;10873;51.132;16.848;2022-09-24T13:46:00;25.20;54.40
21425;DHT22;10873;51.132;16.848;2022-09-24T13:48:32;25.20;54.30
21425;DHT22;10873;51.132;16.848;2022-09-24T13:50:59;25.30;54.50
21425;DHT22;10873;51.132;16.848;2022-09-24T13:53:31;25.30;54.90
21425;DHT22;10873;51.132;16.848;2022-09-24T13:56:02;25.30;54.90
21425;DHT22;10873;51.132;16.848;2022-09-24T13:58:32;25.30;54.60
21425;DHT22;10873;51.132;16.848;2022-09-24T14:01:00;25.30;55.00
21425;DHT22;10873;51.132;16.848;2022-09-24T14:03:28;25.30;55.60
21425;DHT22;10873;51.132;16.848;2022-09-24T14:05:55;25.40;56.00
21425;DHT22;10873;51.132;16.848;2022-09-24T14:08:24;25.40;56.00
21425;DHT22;10873;51.132;16.848;2022-09-24T14:11:03;25.40;55.90
21425;DHT22;10873;51.132;16.848;2022-09-24T14:13:35;25.40;55.70
21425;DHT22;10873;51.132;16.848;2022-09-24T14:16:08;25.40;55.60
21425;DHT22;10873;51.132;16.848;2022-09-24T14:18:35;25.40;55.40
21425;DHT22;10873;51.132;16.848;2022-09-24T14:21:10;25.40;55.10
21425;DHT22;10873;51.132;16.848;2022-09-24T14:23:44;25.40;54.90
21425;DHT22;10873;51.132;16.848;2022-09-24T14:26:21;25.40;54.70
21425;DHT22;10873;51.132;16.848;2022-09-24T14:28:53;25.40;54.50
21425;DHT22;10873;51.132;16.848;2022-09-24T14:31:21;25.40;54.30
21425;DHT22;10873;51.132;16.848;2022-09-24T14:33:47;25.40;54.20
21425;DHT22;10873;51.132;16.848;2022-09-24T14:36:15;25.30;54.00
21425;DHT22;10873;51.132;16.848;2022-09-24T14:38:48;25.30;54.00
21425;DHT22;10873;51.132;16.848;2022-09-24T14:41:18;25.30;53.90
21425;DHT22;10873;51.132;16.848;2022-09-24T14:43:47;25.30;54.00
21425;DHT22;10873;51.132;16.848;2022-09-24T14:46:19;25.30;53.90
21425;DHT22;10873;51.132;16.848;2022-09-24T14:48:46;25.30;54.00
21425;DHT22;10873;51.132;16.848;2022-09-24T14:51:26;25.30;53.90
21425;DHT22;10873;51.132;16.848;2022-09-24T14:53:57;25.30;54.00
21425;DHT22;10873;51.132;16.848;2022-09-24T14:56:28;25.30;54.00
21425;DHT22;10873;51.132;16.848;2022-09-24T14:58:54;25.30;54.00
21425;DHT22;10873;51.132;16.848;2022-09-24T15:01:23;25.30;53.90
21425;DHT22;10873;51.132;16.848;2022-09-24T15:03:52;25.30;54.30
21425;DHT22;10873;51.132;16.848;2022-09-24T15:06:22;25.30;54.60
21425;DHT22;10873;51.132;16.848;2022-09-24T15:08:55;25.20;54.80
21425;DHT22;10873;51.132;16.848;2022-09-24T15:11:25;25.20;55.00
21425;DHT22;10873;51.132;16.848;2022-09-24T15:13:58;25.20;55.10
21425;DHT22;10873;51.132;16.848;2022-09-24T15:16:30;25.20;55.20
21425;DHT22;10873;51.132;16.848;2022-09-24T15:19:11;25.20;55.30
21425;DHT22;10873;51.132;16.848;2022-09-24T15:21:38;25.20;55.40
21425;DHT22;10873;51.132;16.848;2022-09-24T15:24:04;25.20;55.40
21425;DHT22;10873;51.132;16.848;2022-09-24T15:26:32;25.20;55.40
21425;DHT22;10873;51.132;16.848;2022-09-24T15:28:59;25.20;55.50
21425;DHT22;10873;51.132;16.848;2022-09-24T15:31:27;25.20;55.50
21425;DHT22;10873;51.132;16.848;2022-09-24T15:33:53;25.20;55.50
21425;DHT22;10873;51.132;16.848;2022-09-24T15:36:21;25.20;55.50